Terminal Aerodrome Forecast
Issued by NWS

Home | Current Version | Previous Version | Graphics & Text | Print | Product List | Glossary Off
Versions: 1 2 3 4 5 6 7 8 9 10 11 12 13 14 15 16 17 18 19 20 21 22 23 24 25 26 27 28 29 30 31 32 33 34 35 36 37 38 39 40

000
FTUS43 KDDC 181723
TAFGCK
TAF
KGCK 181723Z 1818/1918 VRB03KT P6SM SCT250
     FM191000 16010KT 3SM BR BKN070
     FM191200 17010KT 1 1/2SM BR BKN008
     FM191400 16011KT 1/2SM FG BKN003
     FM191500 16012KT 3/4SM BR BKN008
     FM191600 16013KT 3SM BR BKN090=

USA.gov is the U.S. government's official web portal to all federal, state and local government web resources and services.